createdAt,value
2022-10-20T00:00:30.196Z,101367.00
2022-10-20T00:02:56.712Z,101347.00
2022-10-20T00:05:23.176Z,101333.00
2022-10-20T00:07:49.581Z,101332.00
2022-10-20T00:10:17.421Z,101344.00
2022-10-20T00:12:43.891Z,101337.00
2022-10-20T00:15:10.656Z,101333.00
2022-10-20T00:17:37.034Z,101325.00
2022-10-20T00:20:03.798Z,101323.00
2022-10-20T00:22:31.338Z,101309.00
2022-10-20T00:24:57.756Z,101315.00
2022-10-20T00:27:24.198Z,101306.00
2022-10-20T00:29:50.696Z,101306.00
2022-10-20T00:32:17.168Z,101324.00
2022-10-20T00:34:43.560Z,101320.00
2022-10-20T00:37:10.048Z,101325.00
2022-10-20T00:39:36.455Z,101313.00
2022-10-20T00:42:03.870Z,101319.00
2022-10-20T00:44:50.529Z,101318.00
2022-10-20T00:47:19.526Z,101319.00
2022-10-20T00:49:46.325Z,101313.00
2022-10-20T00:52:12.876Z,101308.00
2022-10-20T00:54:39.296Z,101302.00
2022-10-20T00:57:05.922Z,101305.00
2022-10-20T00:59:33.960Z,101311.00
2022-10-20T01:02:01.527Z,101303.00
2022-10-20T01:04:29.542Z,101292.00
2022-10-20T01:06:56.357Z,101286.00
2022-10-20T01:09:22.826Z,101285.00
2022-10-20T01:11:56.683Z,101274.00
2022-10-20T01:14:23.079Z,101265.00
2022-10-20T01:17:04.534Z,101268.00
2022-10-20T01:19:49.694Z,101248.00
2022-10-20T01:22:16.124Z,101235.00
2022-10-20T01:24:59.055Z,101237.00
2022-10-20T01:27:33.016Z,101234.00
2022-10-20T01:30:08.818Z,101227.00
2022-10-20T01:32:51.950Z,101228.00
2022-10-20T01:35:27.534Z,101236.00
2022-10-20T01:38:11.213Z,101247.00
2022-10-20T01:41:04.116Z,101255.00
2022-10-20T01:43:32.709Z,101254.00
2022-10-20T01:46:00.053Z,101265.00
2022-10-20T01:48:28.839Z,101277.00
2022-10-20T01:50:55.371Z,101269.00
2022-10-20T01:53:21.805Z,101265.00
2022-10-20T01:55:56.340Z,101261.00
2022-10-20T01:58:28.969Z,101263.00
2022-10-20T02:01:01.189Z,101262.00
2022-10-20T02:03:46.265Z,101259.00
2022-10-20T02:06:25.696Z,101245.00
2022-10-20T02:08:59.854Z,101233.00
2022-10-20T02:11:30.489Z,101230.00
2022-10-20T02:13:57.667Z,101228.00
2022-10-20T02:16:32.900Z,101235.00
2022-10-20T02:21:31.290Z,101218.00
2022-10-20T02:24:00.515Z,101208.00
2022-10-20T02:26:27.037Z,101203.00
2022-10-20T02:28:55.877Z,101199.00
2022-10-20T02:31:22.368Z,101195.00
2022-10-20T02:33:48.832Z,101188.00
2022-10-20T02:36:20.592Z,101178.00
2022-10-20T02:38:47.218Z,101193.00
2022-10-20T02:41:13.656Z,101211.00
2022-10-20T02:43:40.109Z,101200.00
2022-10-20T02:46:06.877Z,101191.00
2022-10-20T02:48:33.338Z,101182.00
2022-10-20T02:50:59.794Z,101158.00
2022-10-20T02:53:26.248Z,101138.00
2022-10-20T02:55:52.695Z,101149.00
2022-10-20T02:58:19.157Z,101161.00
2022-10-20T03:00:45.538Z,101147.00
2022-10-20T03:03:11.979Z,101153.00
2022-10-20T03:05:44.331Z,101158.00
2022-10-20T03:08:11.270Z,101157.00
2022-10-20T03:10:38.724Z,101136.00
2022-10-20T03:13:05.865Z,101117.00
2022-10-20T03:15:32.593Z,101130.00
2022-10-20T03:17:58.986Z,101121.00
2022-10-20T03:20:25.488Z,101114.00
2022-10-20T03:22:52.069Z,101134.00
2022-10-20T03:25:18.523Z,101140.00
2022-10-20T03:27:44.919Z,101138.00
2022-10-20T03:30:11.422Z,101136.00
2022-10-20T03:32:38.183Z,101137.00
2022-10-20T03:35:05.042Z,101123.00
2022-10-20T03:37:31.454Z,101121.00
2022-10-20T03:39:57.933Z,101122.00
2022-10-20T03:42:24.325Z,101114.00
2022-10-20T03:44:50.753Z,101119.00
2022-10-20T03:47:17.191Z,101121.00
2022-10-20T03:49:43.615Z,101115.00
2022-10-20T03:52:10.072Z,101128.00
2022-10-20T03:54:36.965Z,101127.00
2022-10-20T03:57:06.866Z,101107.00
2022-10-20T03:59:34.550Z,101119.00
2022-10-20T04:02:01.095Z,101112.00
2022-10-20T04:04:27.611Z,101114.00
2022-10-20T04:06:54.153Z,101109.00
2022-10-20T04:09:20.679Z,101108.00
2022-10-20T04:11:47.341Z,101115.00
2022-10-20T04:14:13.762Z,101108.00
2022-10-20T04:16:42.029Z,101094.00
2022-10-20T04:19:08.581Z,101101.00
2022-10-20T04:21:35.080Z,101087.00
2022-10-20T04:24:01.519Z,101086.00
2022-10-20T04:26:27.962Z,101088.00
2022-10-20T04:28:55.953Z,101086.00
2022-10-20T04:31:22.417Z,101099.00
2022-10-20T04:33:48.790Z,101088.00
2022-10-20T04:36:15.413Z,101086.00
2022-10-20T04:38:41.858Z,101084.00
2022-10-20T04:41:08.305Z,101086.00
2022-10-20T04:43:34.907Z,101082.00
2022-10-20T04:46:05.422Z,101084.00
2022-10-20T04:48:34.773Z,101079.00
2022-10-20T04:51:05.857Z,101073.00
2022-10-20T04:53:32.283Z,101076.00
2022-10-20T04:55:58.736Z,101074.00
2022-10-20T04:58:25.595Z,101071.00
2022-10-20T05:00:52.461Z,101074.00
2022-10-20T05:03:21.747Z,101068.00
2022-10-20T05:05:48.268Z,101088.00
2022-10-20T05:08:14.730Z,101096.00
2022-10-20T05:10:41.222Z,101083.00
2022-10-20T05:13:07.766Z,101068.00
2022-10-20T05:15:34.179Z,101067.00
2022-10-20T05:18:00.613Z,101062.00
2022-10-20T05:20:27.138Z,101068.00
2022-10-20T05:22:53.672Z,101054.00
2022-10-20T05:25:36.766Z,101037.00
2022-10-20T05:28:04.068Z,101030.00
2022-10-20T05:30:30.549Z,101025.00
2022-10-20T05:32:57.048Z,101025.00
2022-10-20T05:35:23.489Z,101014.00
2022-10-20T05:37:49.930Z,101016.00
2022-10-20T05:40:16.406Z,101015.00
2022-10-20T05:42:42.834Z,100995.00
2022-10-20T05:45:09.476Z,100996.00
2022-10-20T05:47:35.964Z,100982.00
2022-10-20T05:50:02.499Z,100973.00
2022-10-20T05:52:28.941Z,100973.00
2022-10-20T05:54:55.341Z,100985.00
2022-10-20T05:57:21.769Z,100997.00
2022-10-20T05:59:48.194Z,100994.00
2022-10-20T06:02:14.669Z,100985.00
2022-10-20T06:04:41.193Z,100975.00
2022-10-20T06:07:10.018Z,100963.00
2022-10-20T06:09:37.003Z,100963.00
2022-10-20T06:12:03.772Z,100986.00
2022-10-20T06:14:30.370Z,100986.00
2022-10-20T06:16:56.810Z,100981.00
2022-10-20T06:19:23.978Z,100994.00
2022-10-20T06:21:50.875Z,100985.00
2022-10-20T06:24:17.961Z,100994.00
2022-10-20T06:26:44.357Z,101002.00
2022-10-20T06:29:12.279Z,101000.00
2022-10-20T06:31:39.911Z,101003.00
2022-10-20T06:34:07.395Z,101009.00
2022-10-20T06:36:37.344Z,101012.00
2022-10-20T06:39:04.658Z,101002.00
2022-10-20T06:41:31.475Z,101030.00
2022-10-20T06:43:59.522Z,101027.00
2022-10-20T06:46:27.155Z,101029.00
2022-10-20T06:48:57.887Z,101028.00
2022-10-20T06:51:25.608Z,101028.00
2022-10-20T06:53:52.205Z,101006.00
2022-10-20T06:56:23.756Z,101006.00
2022-10-20T06:58:51.296Z,101002.00
2022-10-20T07:01:28.543Z,101005.00
2022-10-20T07:03:55.689Z,101003.00
2022-10-20T07:06:31.887Z,101017.00
2022-10-20T07:08:59.037Z,101018.00
2022-10-20T07:11:26.908Z,101022.00
2022-10-20T07:13:53.454Z,101021.00
2022-10-20T07:16:24.325Z,101043.00
2022-10-20T07:18:51.244Z,101051.00
2022-10-20T07:21:19.411Z,101067.00
2022-10-20T07:23:46.239Z,101069.00
2022-10-20T07:26:15.216Z,101057.00
2022-10-20T07:28:42.915Z,101043.00
2022-10-20T07:31:11.242Z,100999.00
2022-10-20T07:33:38.154Z,100952.00
2022-10-20T07:36:12.690Z,100946.00
2022-10-20T07:38:39.216Z,100966.00
2022-10-20T07:41:05.751Z,100970.00
2022-10-20T07:43:32.177Z,100996.00
2022-10-20T07:45:59.779Z,101005.00
2022-10-20T07:48:26.178Z,100997.00
2022-10-20T07:50:52.596Z,100996.00
2022-10-20T07:53:19.028Z,100989.00
2022-10-20T07:55:46.039Z,100984.00
2022-10-20T07:58:12.689Z,100978.00
2022-10-20T08:03:06.770Z,100984.00
2022-10-20T08:05:33.204Z,100976.00
2022-10-20T08:08:00.833Z,100964.00
2022-10-20T08:10:27.302Z,100970.00
2022-10-20T08:12:53.800Z,100972.00
2022-10-20T08:15:20.253Z,100981.00
2022-10-20T08:17:49.758Z,100987.00
2022-10-20T08:20:27.379Z,100993.00
2022-10-20T08:22:53.912Z,100985.00
2022-10-20T08:25:20.360Z,100995.00
2022-10-20T08:27:46.777Z,100978.00
2022-10-20T08:30:23.403Z,100965.00
2022-10-20T08:32:51.764Z,100968.00
2022-10-20T08:35:18.372Z,100969.00
2022-10-20T08:37:44.777Z,100952.00
2022-10-20T08:40:16.305Z,100939.00
2022-10-20T08:42:45.192Z,100944.00
2022-10-20T08:45:14.888Z,100954.00
2022-10-20T08:47:41.629Z,100933.00
2022-10-20T08:50:10.566Z,100937.00
2022-10-20T08:52:40.097Z,100930.00
2022-10-20T08:55:07.043Z,100912.00
2022-10-20T08:57:36.337Z,100911.00
2022-10-20T09:00:18.405Z,100900.00
2022-10-20T09:02:45.508Z,100908.00
2022-10-20T09:05:16.705Z,100939.00
2022-10-20T09:07:48.401Z,100939.00
2022-10-20T09:10:26.631Z,100951.00
2022-10-20T09:12:53.338Z,100947.00
2022-10-20T09:15:21.096Z,100955.00
2022-10-20T09:17:51.950Z,100950.00
2022-10-20T09:20:24.476Z,100963.00
2022-10-20T09:22:50.931Z,100956.00
2022-10-20T09:25:23.929Z,100950.00
2022-10-20T09:27:50.773Z,100964.00
2022-10-20T09:30:25.832Z,100954.00
2022-10-20T09:32:52.953Z,100955.00
2022-10-20T09:35:22.388Z,100955.00
2022-10-20T09:37:53.924Z,100948.00
2022-10-20T09:40:20.779Z,100939.00
2022-10-20T09:42:52.905Z,100934.00
2022-10-20T09:45:22.113Z,100931.00
2022-10-20T09:47:56.239Z,100931.00
2022-10-20T09:50:25.312Z,100928.00
2022-10-20T09:52:52.415Z,100923.00
2022-10-20T09:55:27.001Z,100929.00
2022-10-20T09:57:55.703Z,100934.00
2022-10-20T10:00:37.331Z,100935.00
2022-10-20T10:03:23.543Z,100940.00
2022-10-20T10:05:51.383Z,100941.00
2022-10-20T10:08:18.241Z,100931.00
2022-10-20T10:10:45.913Z,100937.00
2022-10-20T10:13:24.822Z,100942.00
2022-10-20T10:16:01.595Z,100936.00
2022-10-20T10:18:28.112Z,100945.00
2022-10-20T10:20:59.450Z,100927.00
2022-10-20T10:23:27.253Z,100937.00
2022-10-20T10:25:56.602Z,100938.00
2022-10-20T10:28:33.941Z,100941.00
2022-10-20T10:31:20.649Z,100931.00
2022-10-20T10:33:48.010Z,100931.00
2022-10-20T10:36:34.719Z,100931.00
2022-10-20T10:39:02.264Z,100917.00
2022-10-20T10:41:38.285Z,100921.00
2022-10-20T10:44:43.383Z,100915.00
2022-10-20T10:47:18.601Z,100916.00
2022-10-20T10:49:50.978Z,100902.00
2022-10-20T10:52:21.741Z,100905.00
2022-10-20T10:54:58.135Z,100904.00
2022-10-20T10:57:30.073Z,100899.00
2022-10-20T10:59:58.664Z,100903.00
2022-10-20T11:02:51.574Z,100910.00
2022-10-20T11:05:24.668Z,100912.00
2022-10-20T11:08:09.176Z,100919.00
2022-10-20T11:10:35.603Z,100923.00
2022-10-20T11:13:17.454Z,100918.00
2022-10-20T11:15:46.939Z,100921.00
2022-10-20T11:18:19.548Z,100911.00
2022-10-20T11:20:51.983Z,100915.00
2022-10-20T11:23:21.489Z,100908.00
2022-10-20T11:25:47.913Z,100905.00
2022-10-20T11:28:23.087Z,100901.00
2022-10-20T11:30:50.369Z,100908.00
2022-10-20T11:33:20.539Z,100903.00
2022-10-20T11:35:51.886Z,100894.00
2022-10-20T11:38:31.375Z,100893.00
2022-10-20T11:41:03.587Z,100900.00
2022-10-20T11:43:36.208Z,100889.00
2022-10-20T11:46:22.460Z,100887.00
2022-10-20T11:48:52.773Z,100891.00
2022-10-20T11:51:31.186Z,100879.00
2022-10-20T11:54:06.331Z,100883.00
2022-10-20T11:56:35.558Z,100879.00
2022-10-20T11:59:05.000Z,100883.00
2022-10-20T12:01:41.212Z,100873.00
2022-10-20T12:04:26.432Z,100878.00
2022-10-20T12:06:52.889Z,100882.00
2022-10-20T12:09:22.271Z,100873.00
2022-10-20T12:12:06.963Z,100866.00
2022-10-20T12:14:36.455Z,100857.00
2022-10-20T12:17:12.471Z,100852.00
2022-10-20T12:19:39.072Z,100848.00
2022-10-20T12:22:14.770Z,100845.00
2022-10-20T12:24:42.370Z,100836.00
2022-10-20T12:27:08.853Z,100830.00
2022-10-20T12:29:35.277Z,100831.00
2022-10-20T12:32:21.260Z,100837.00
2022-10-20T12:34:48.908Z,100833.00
2022-10-20T12:37:17.527Z,100833.00
2022-10-20T12:39:44.460Z,100826.00
2022-10-20T12:42:29.951Z,100818.00
2022-10-20T12:45:02.601Z,100807.00
2022-10-20T12:47:30.492Z,100814.00
2022-10-20T12:50:06.239Z,100811.00
2022-10-20T12:52:35.094Z,100799.00
2022-10-20T12:55:07.623Z,100800.00
2022-10-20T12:57:41.790Z,100801.00
2022-10-20T13:00:28.445Z,100796.00
2022-10-20T13:02:55.511Z,100801.00
2022-10-20T13:05:27.746Z,100789.00
2022-10-20T13:07:54.170Z,100797.00
2022-10-20T13:10:26.635Z,100800.00
2022-10-20T13:12:53.599Z,100796.00
2022-10-20T13:15:21.228Z,100791.00
2022-10-20T13:17:56.568Z,100785.00
2022-10-20T13:20:25.840Z,100794.00
2022-10-20T13:22:55.847Z,100792.00
2022-10-20T13:25:39.638Z,100784.00
2022-10-20T13:28:18.436Z,100786.00
2022-10-20T13:31:03.613Z,100779.00
2022-10-20T13:33:58.749Z,100789.00
2022-10-20T13:36:48.624Z,100786.00
2022-10-20T13:39:15.003Z,100780.00
2022-10-20T13:41:50.536Z,100773.00
2022-10-20T13:44:35.764Z,100768.00
2022-10-20T13:47:33.263Z,100777.00
2022-10-20T13:49:59.648Z,100774.00
2022-10-20T13:52:28.711Z,100773.00
2022-10-20T13:54:55.749Z,100771.00
2022-10-20T13:57:32.819Z,100769.00
2022-10-20T14:00:00.719Z,100775.00
2022-10-20T14:02:28.751Z,100772.00
2022-10-20T14:05:01.960Z,100761.00
2022-10-20T14:07:35.928Z,100772.00
2022-10-20T14:10:02.373Z,100776.00
2022-10-20T14:12:28.879Z,100775.00
2022-10-20T14:14:59.395Z,100772.00
2022-10-20T14:17:28.325Z,100774.00
2022-10-20T14:20:13.249Z,100772.00
2022-10-20T14:22:43.471Z,100774.00
2022-10-20T14:25:10.836Z,100777.00
2022-10-20T14:27:37.581Z,100770.00
2022-10-20T14:30:05.500Z,100767.00
2022-10-20T14:32:32.962Z,100771.00
2022-10-20T14:34:59.493Z,100759.00
2022-10-20T14:37:31.220Z,100748.00
2022-10-20T14:39:59.651Z,100757.00
2022-10-20T14:42:29.163Z,100753.00
2022-10-20T14:44:57.425Z,100754.00
2022-10-20T14:47:24.795Z,100758.00
2022-10-20T14:49:53.345Z,100754.00
2022-10-20T14:52:27.986Z,100749.00
2022-10-20T14:54:54.419Z,100757.00
2022-10-20T14:57:20.785Z,100749.00
2022-10-20T14:59:51.630Z,100748.00
2022-10-20T15:02:20.692Z,100742.00
2022-10-20T15:04:48.872Z,100755.00
2022-10-20T15:07:22.691Z,100756.00
2022-10-20T15:09:50.881Z,100757.00
2022-10-20T15:12:21.610Z,100755.00
2022-10-20T15:14:50.260Z,100752.00
2022-10-20T15:17:49.090Z,100753.00
2022-10-20T15:20:34.193Z,100751.00
2022-10-20T15:23:04.704Z,100756.00
2022-10-20T15:25:32.597Z,100757.00
2022-10-20T15:27:59.459Z,100755.00
2022-10-20T15:30:26.481Z,100756.00
2022-10-20T15:32:53.981Z,100759.00
2022-10-20T15:35:22.636Z,100764.00
2022-10-20T15:37:50.202Z,100763.00
2022-10-20T15:40:16.849Z,100761.00
2022-10-20T15:42:43.310Z,100759.00
2022-10-20T15:45:14.961Z,100758.00
2022-10-20T15:47:41.533Z,100762.00
2022-10-20T15:50:08.122Z,100756.00
2022-10-20T15:52:34.797Z,100758.00
2022-10-20T15:55:01.400Z,100756.00
2022-10-20T15:57:28.698Z,100747.00
2022-10-20T15:59:55.139Z,100743.00
2022-10-20T16:02:21.584Z,100748.00
2022-10-20T16:04:48.005Z,100742.00
2022-10-20T16:07:14.443Z,100746.00
2022-10-20T16:09:40.911Z,100759.00
2022-10-20T16:12:07.678Z,100754.00
2022-10-20T16:14:34.510Z,100752.00
2022-10-20T16:17:00.979Z,100747.00
2022-10-20T16:19:27.405Z,100752.00
2022-10-20T16:21:53.875Z,100740.00
2022-10-20T16:24:20.328Z,100745.00
2022-10-20T16:26:46.718Z,100744.00
2022-10-20T16:29:13.169Z,100745.00
2022-10-20T16:31:39.606Z,100734.00
2022-10-20T16:34:06.045Z,100746.00
2022-10-20T16:36:32.520Z,100737.00
2022-10-20T16:39:00.792Z,100733.00
2022-10-20T16:41:27.266Z,100738.00
2022-10-20T16:43:55.414Z,100734.00
2022-10-20T16:46:25.361Z,100733.00
2022-10-20T16:48:51.882Z,100731.00
2022-10-20T16:51:18.429Z,100734.00
2022-10-20T16:53:44.936Z,100745.00
2022-10-20T16:56:15.263Z,100742.00
2022-10-20T16:58:44.777Z,100736.00
2022-10-20T17:01:12.296Z,100727.00
2022-10-20T17:06:14.190Z,100728.00
2022-10-20T17:08:41.120Z,100721.00
2022-10-20T17:11:08.807Z,100721.00
2022-10-20T17:13:36.173Z,100716.00
2022-10-20T17:16:06.570Z,100717.00
2022-10-20T17:18:33.248Z,100715.00
2022-10-20T17:20:59.753Z,100714.00
2022-10-20T17:23:26.540Z,100715.00
2022-10-20T17:25:53.666Z,100715.00
2022-10-20T17:28:20.159Z,100708.00
2022-10-20T17:30:47.574Z,100709.00
2022-10-20T17:33:14.394Z,100717.00
2022-10-20T17:35:40.815Z,100722.00
2022-10-20T17:38:07.265Z,100723.00
2022-10-20T17:40:37.707Z,100725.00
2022-10-20T17:43:04.405Z,100725.00
2022-10-20T17:45:33.823Z,100733.00
2022-10-20T17:48:02.750Z,100732.00
2022-10-20T17:50:29.193Z,100730.00
2022-10-20T17:52:55.632Z,100729.00
2022-10-20T17:55:22.050Z,100730.00
2022-10-20T17:57:48.467Z,100725.00
2022-10-20T18:00:22.894Z,100722.00
2022-10-20T18:02:58.475Z,100725.00
2022-10-20T18:05:24.916Z,100728.00
2022-10-20T18:07:51.375Z,100728.00
2022-10-20T18:10:17.909Z,100726.00
2022-10-20T18:12:44.395Z,100721.00
2022-10-20T18:15:10.843Z,100716.00
2022-10-20T18:17:37.259Z,100717.00
2022-10-20T18:20:04.021Z,100715.00
2022-10-20T18:22:30.515Z,100716.00
2022-10-20T18:24:56.965Z,100712.00
2022-10-20T18:27:24.592Z,100719.00
2022-10-20T18:29:51.021Z,100729.00
2022-10-20T18:32:17.438Z,100728.00
2022-10-20T18:34:43.932Z,100727.00
2022-10-20T18:37:10.582Z,100728.00
2022-10-20T18:39:37.024Z,100723.00
2022-10-20T18:42:03.578Z,100723.00
2022-10-20T18:44:30.497Z,100712.00
2022-10-20T18:46:58.285Z,100716.00
2022-10-20T18:49:25.049Z,100710.00
2022-10-20T18:51:51.441Z,100708.00
2022-10-20T18:54:18.348Z,100708.00
2022-10-20T18:56:45.035Z,100708.00
2022-10-20T18:59:13.929Z,100707.00
2022-10-20T19:01:41.153Z,100704.00
2022-10-20T19:04:08.482Z,100699.00
2022-10-20T19:06:39.691Z,100695.00
2022-10-20T19:09:07.944Z,100687.00
2022-10-20T19:11:35.334Z,100677.00
2022-10-20T19:14:02.230Z,100673.00
2022-10-20T19:16:30.451Z,100669.00
2022-10-20T19:18:57.717Z,100670.00
2022-10-20T19:21:24.838Z,100673.00
2022-10-20T19:23:52.654Z,100668.00
2022-10-20T19:26:20.857Z,100656.00
2022-10-20T19:28:49.226Z,100652.00
2022-10-20T19:31:25.290Z,100647.00
2022-10-20T19:33:52.803Z,100648.00
2022-10-20T19:36:19.667Z,100645.00
2022-10-20T19:38:46.446Z,100645.00
2022-10-20T19:41:12.850Z,100646.00
2022-10-20T19:43:39.330Z,100638.00
2022-10-20T19:46:06.889Z,100632.00
2022-10-20T19:48:34.422Z,100627.00
2022-10-20T19:51:01.158Z,100629.00
2022-10-20T19:53:27.907Z,100620.00
2022-10-20T19:55:54.464Z,100615.00
2022-10-20T19:58:21.241Z,100612.00
2022-10-20T20:00:49.591Z,100609.00
2022-10-20T20:03:16.616Z,100605.00
2022-10-20T20:05:43.035Z,100593.00
2022-10-20T20:08:09.829Z,100600.00
2022-10-20T20:10:36.791Z,100600.00
2022-10-20T20:13:03.915Z,100618.00
2022-10-20T20:15:30.504Z,100636.00
2022-10-20T20:17:56.988Z,100643.00
2022-10-20T20:20:23.449Z,100629.00
2022-10-20T20:22:49.863Z,100630.00
2022-10-20T20:25:16.363Z,100633.00
2022-10-20T20:27:42.932Z,100637.00
2022-10-20T20:30:09.734Z,100630.00
2022-10-20T20:32:38.610Z,100623.00
2022-10-20T20:35:06.227Z,100633.00
2022-10-20T20:37:33.722Z,100637.00
2022-10-20T20:40:00.167Z,100633.00
2022-10-20T20:42:26.598Z,100642.00
2022-10-20T20:44:53.202Z,100656.00
2022-10-20T20:47:19.595Z,100659.00
2022-10-20T20:49:46.017Z,100665.00
2022-10-20T20:52:12.422Z,100663.00
2022-10-20T20:54:38.858Z,100656.00
2022-10-20T20:57:05.352Z,100653.00
2022-10-20T20:59:31.777Z,100647.00
2022-10-20T21:01:58.183Z,100638.00
2022-10-20T21:04:27.028Z,100634.00
2022-10-20T21:07:02.042Z,100631.00
2022-10-20T21:09:29.338Z,100645.00
2022-10-20T21:11:55.864Z,100631.00
2022-10-20T21:14:22.309Z,100624.00
2022-10-20T21:16:48.772Z,100627.00
2022-10-20T21:19:15.343Z,100631.00
2022-10-20T21:21:50.240Z,100630.00
2022-10-20T21:24:17.749Z,100626.00
2022-10-20T21:26:44.168Z,100624.00
2022-10-20T21:29:10.626Z,100622.00
2022-10-20T21:31:37.086Z,100619.00
2022-10-20T21:34:04.417Z,100620.00
2022-10-20T21:36:32.418Z,100621.00
2022-10-20T21:38:59.766Z,100624.00
2022-10-20T21:41:27.855Z,100622.00
2022-10-20T21:43:55.464Z,100618.00
2022-10-20T21:46:26.160Z,100621.00
2022-10-20T21:48:54.006Z,100623.00
2022-10-20T21:51:20.360Z,100636.00
2022-10-20T21:53:47.142Z,100638.00
2022-10-20T21:56:14.034Z,100644.00
2022-10-20T21:58:40.485Z,100647.00
2022-10-20T22:01:10.190Z,100649.00
2022-10-20T22:03:36.774Z,100663.00
2022-10-20T22:06:03.609Z,100669.00
2022-10-20T22:08:30.102Z,100661.00
2022-10-20T22:10:56.602Z,100666.00
2022-10-20T22:13:23.066Z,100659.00
2022-10-20T22:15:49.466Z,100659.00
2022-10-20T22:18:15.889Z,100660.00
2022-10-20T22:20:42.358Z,100663.00
2022-10-20T22:23:08.799Z,100663.00
2022-10-20T22:25:36.175Z,100680.00
2022-10-20T22:28:02.760Z,100693.00
2022-10-20T22:30:29.301Z,100688.00
2022-10-20T22:32:55.680Z,100678.00
2022-10-20T22:35:22.137Z,100681.00
2022-10-20T22:37:48.539Z,100683.00
2022-10-20T22:40:15.011Z,100681.00
2022-10-20T22:42:41.714Z,100675.00
2022-10-20T22:45:08.740Z,100674.00
2022-10-20T22:47:35.213Z,100678.00
2022-10-20T22:50:01.665Z,100675.00
2022-10-20T22:52:28.239Z,100677.00
2022-10-20T22:54:54.646Z,100681.00
2022-10-20T22:57:21.076Z,100682.00
2022-10-20T22:59:47.485Z,100675.00
2022-10-20T23:02:13.985Z,100668.00
2022-10-20T23:04:40.725Z,100669.00
2022-10-20T23:07:07.150Z,100667.00
2022-10-20T23:09:33.624Z,100665.00
2022-10-20T23:12:00.098Z,100655.00
2022-10-20T23:14:26.485Z,100662.00
2022-10-20T23:16:52.907Z,100663.00
2022-10-20T23:19:19.348Z,100661.00
2022-10-20T23:21:45.775Z,100657.00
2022-10-20T23:24:12.206Z,100663.00
2022-10-20T23:26:38.658Z,100648.00
2022-10-20T23:29:05.074Z,100653.00
2022-10-20T23:31:31.520Z,100640.00
2022-10-20T23:33:58.184Z,100640.00
2022-10-20T23:36:24.635Z,100636.00
2022-10-20T23:38:51.196Z,100634.00
2022-10-20T23:41:17.933Z,100629.00
2022-10-20T23:43:44.599Z,100626.00
2022-10-20T23:46:14.457Z,100635.00
2022-10-20T23:48:40.982Z,100629.00
2022-10-20T23:51:07.913Z,100624.00
2022-10-20T23:53:34.550Z,100626.00
2022-10-20T23:56:01.057Z,100624.00
2022-10-20T23:58:27.534Z,100623.00
